Timeline UpdatesTrip UpdatesNews PostsPvt Posts♥♥Travel TipsAdmin PostsConv PostsFollowed PostsChat RequestsBlog PostsPNR Posts

Disclaimer
Search
 
 
Fri Nov 28, 2014 05:50:03 ISTHomeTrainsΣChainsAtlasPNRForumGalleryNewsFAQTripsMembersLoginFeedback
No Recent News for this Train
Other Trains in the News **new
Latest...
..
Fri Mar 08, 2013 (11:04AM)
⇐ Return Journey: Train# 12916

12915/Ashram SF Express

Time-Table HAS CHANGED.
Sep 03 2014 (8:27PM)
Change Departure Station:
Change Arrival Station:
Post a Train Travel TipPost a Train Travel Tip **new
Post a Comment/Question/Picture/VideoPost a Comment/Question/Picture/Video
Inaugural Run
Fri Aug 01, 1997
Pantry/Catering
✕ NO Pantry Car
✓ Catering Avbl
RSA - Rake Sharing
Rake/Coach Composition
Eng-SLR-GEN-GEN-S1-S2-S3-S4-S5-S6-S7-S8-S9-S10-S11-S12-S13-B3-B2-B1-A1-HA1-GEN-GEN-SLR; ( 1AC-.5, 2AC-1.5, 3AC-3, S-13, GEN-4, SLR-2= 24 coach)
Loco
BGKT WDP4/WDP4B/WDP4D
News    PNR    Forum    Time-Table    Availability    Fare Chart    Map    Arr/Dep History    Trips    Gallery    ΣChains    X/O    Timeline    
Travel Time: 15h 40m    18 halts    Distance: 938 km    Avg Speed: 59 km/hr
Type: SuperFast
Zone: WR/Western
Departs @ 18:30 (Avg 2m late)
Platform# 10
SMTWTFS
Ahmedabad Junction/ADI 
Arrives @ 10:10 +1 night (Avg 8m late)
Platform# 3
SMTWTFS
Old Delhi Junction/DLI 

18 halts. 160 intermediate Stations between Ahmedabad Junction and Old Delhi Junction

Hide intermediate Stations  Show Old Time-Table

#TrkCodeStation NameX/OArrivesAvgDepartsAvgHaltPFDay#KmSpeedElevZoneAddress
1/==/ADIAhmedabad Junction (12)»  -18:30+21010.02251mWRAhmedabad, Gujarat
1.1/==/SBTASabarmati A Cabin  18:38-18:38-  13.0 2256mWRSabarmati A Cabin, Gujarat
1.2/==/SBICSabarmati BridgeXO  18:43-18:43-  14.7 2254mWRSabarmati Bridge, Gujarat
1.3/==/SBTSabarmati Junction (3)  18:45-18:45-  15.4 2252mWRAhmedabad, Gujarat
2/==/SBISabarmati Junction (3)O  18:45+618:47+62m215.46855mWRAhmadabad, Gujarat
2.1/==/SBISSabarmati SouthO  18:50-18:50-  18.7 6856mWRSabarmati South, Gujarat
2.2/=-/CLDBChandlodiya BX  18:54-18:54-  113.1 6855mWRAhmedabad, Gujarat
2.3/--|KHDKhodiyarX  19:00-19:00-  120.4 6865mWRGandhinagar, Gujarat
2.4|--|SHRDSaij Sertha Road (2)  19:06-19:06-  127.0 6871mWRJhulasan, Gujarat
2.5|--|KLLKalol (3)X  19:10-19:10-  131.2 6871mWRKalol, Gujarat
2.6|--|CTRLChhatral  19:13-19:13-  134.7 6872mWRState Highway 133, Gujarat
2.7|--|ENIsand  19:15-19:15-  136.5 6877mWRKhodiyar, Gujarat
2.8|--|PNPansar  19:17-19:17-  138.7 6874mWRPalanpur, Gujarat
2.9|--|JULJhulasan (3)  19:19-19:19-  141.0 6877mWRMehsana, Gujarat
2.10|--|GUSBGhumasan Bg  19:21-19:21-  143.9 6881mWRChandarda, Gujarat
2.11|--|GUSGhumasan  19:21-19:21-  143.9 6882mWRState Highway 41, Gujarat
2.12|--|DNWDangarwa  19:24-19:24-  147.6 6883mWRJagudan, Gujarat
2.13|--|KYSDKaiyal Sedhavi  19:28-19:28-  152.0 6885mWRState Highway 217, Gujarat
2.14|--|KYSBKaiyal Sedhavi Bg  19:28-19:28-  152.0 6885mWRLanghanaj, Gujarat
2.15|--|UMNAmbliyasan  19:31-19:31-  155.4 6890mWRMehsana, Gujarat
2.16|--|JDNMJagudan  19:38-19:38-  163.2 6890mWRKochva Road, Gujarat
2.17|--|JDNJagudanX  19:38-19:38-  163.2 6890mWRKochva Road, Gujarat
2.18|--|SXSShobhasan  19:42-19:42-  167.5 6886mWRState Highway 41, Gujarat
3|--|MSHMahesana Junction (6)X  19:46 19:47+819:48 19:49+112m1173.06995mWRMehsana, Gujarat
3.1|--|MSHMMahesana  19:49-19:49-  173.1 6994mWRMehsana, Gujarat
3.2|--|BHUBhandu Motidau  19:59-19:59-  184.1 6997mWRMahesana, Gujarat
3.3|--|UARUnawa Aithor  20:04-20:04-  190.2 69108mWRGujarat State Highway 41, Gujarat
4|--|UJAUnjha  20:08+1420:10+132m2194.945116mWRUnjha, Gujarat
4.1|--|KMLIKamli  20:20-20:20-  1102.2 45126mWRChhapi, Gujarat
4.2|--|SIDSiddhpur  20:28-20:28-  1108.6 45136mWRState Highway 41, Gujarat
4.3|--|DRWDharewada  20:35-20:35-  1114.2 45145mWRUnjha, Gujarat
4.4|--|CHPChhapiX  20:46-20:46-  1121.8 45169mWRBanaskantha, Gujarat
4.5|--|UMUmardashi  20:56-20:56-  1129.6 45187mWRChitrasani, Gujarat
5|-=!PNUPalanpur Junction (5)X  21:07+021:09+32m11138.072216mWRPalanpur, Gujarat
5.1!==!KRJDKarjodaX  21:14-21:14-  1144.1 72234mNWRChhapi, Gujarat
5.2!==!CTTChitrasani  21:19-21:19-  1149.5 72225mNWRChitrasani, Gujarat
5.3!==!JTYJethi  21:22-21:22-  1153.9 72212mNWRBANASKANTHA, Gujarat
5.4!==!IQGIqbal Gadh  21:27-21:27-  1160.0 72209mNWRBanaskantha, Gujarat
5.5!==!SZASarotra RoadX  21:34-21:34-  1167.5 72216mNWRSarotra, Gujarat
5.6!==!SIMShri Amirgadh  21:38-21:38-  1172.9 72229mNWRAmirgadh, Gujarat
5.7!==!MAAMaval  21:45-21:45-  1181.3 72245mNWRNational Highway 14, Rajasthan
6!==!ABRAbu Road (3)X  21:55 21:53+2022:05 22:03+2210m11190.678264mNWRSirohi Dist, Rajasthan
6.1!==!MXOMorthalaX  22:05-22:05-  1193.7 78267mNWRNH 14, Rajasthan
6.2!==!KWIKivarli  22:10-22:10-  1199.6 78281mNWRShri Amirgadh, Rajasthan
6.3!==!BMNBhimana  22:16-22:16-  1207.5 78313mNWRAbu Road, Rajasthan
6.4!==!SRPJSwarupGanj  22:23-22:23-  1216.0 78334mNWRSirohi Road, Rajasthan
6.5!==!BNSBanas  22:29-22:29-  1224.4 78347mNWRSirohi Road, Rajasthan
6.6!==!SOHSirohi Road (2)  22:37-22:37-  1234.5 78369mNWRPindwara, Rajasthan
6.7!=-|KVJKeshavganjX  22:43-22:43-  1242.4 78393mNWRJawai Bandh, Rajasthan
6.8|--|NANANana  22:50-22:50-  1251.5 78355mNWRNana, Rajasthan
6.9|--|KTRKothar  22:55-22:55-  1257.6 78346mNWRPali, Rajasthan
6.10|--|MOIMori BeraX  22:59-22:59-  1263.9 78323mNWRNana, Rajasthan
6.11|--|JWBJawai BandhX  23:07-23:07-  1273.3 78292mNWRPali, Rajasthan
6.12|--|BRLYBiroliya  23:13-23:13-  1281.5 78294mNWRBiroliya Rd, Rajasthan
7|--|FAFalna (2)  23:28 23:19+3323:30 23:21+332m--1289.574282mNWRFalna, Rajasthan
7.1|--|KZQKhimelX  23:28-23:28-  1297.6 74277mNWRJawai Bandh, Rajasthan
7.2|--|RANIRani  23:33-23:33-  1303.9 74280mNWRRania, Rajasthan
7.3|--|BGPRBhagwanpuraX  23:39-23:39-  1312.0 74276mNWRSomesar, Rajasthan
7.4|--|JALJawali  23:45-23:45-  1319.6 74270mNWRRania, Rajasthan
7.5|--|SOSSomesar  23:52-23:52-  1328.0 74269mNWRSomesar, Rajasthan
7.6|--|BWABhinwaliya  23:57-23:57-  1334.1 74268mNWRPindwara, Rajasthan
7.7|--|BGGBanta RaghunathgarhX  00:02-00:02-  2340.0 74266mNWRSomesar, Rajasthan
7.8|--|AUWAAuwa (2)  00:08-00:08-  2347.3 74265mNWRSomesar, Rajasthan
7.9|--|MJMarwar Junction (4)  00:15-00:15-  2356.0 74267mNWRMarwar Junction, Rajasthan
7.10|--|DRSDhareshwar  00:22-00:22-  2364.8 74275mNWRMarwar Jn, Rajasthan
7.11|--|BFYBhesana  00:27-00:27-  2371.4 74285mNWRMarwar, Rajasthan
7.12|--|SODSojat Road (2)X  00:32-00:32-  2376.9 74295mNWRSojat Road, Rajasthan
7.13|--|BQNBagri Nagar  00:36-00:36-  2382.1 74295mNWRMarwar, Rajasthan
7.14|--|BGXBagri Sajjanpur  00:40-00:40-  2386.3 74298mNWRHaripur, Rajasthan
7.15|--|CNLChandawalX  00:44-00:44-  2392.1 74304mNWRPali, Rajasthan
7.16|--|GRIGuriyaX  00:53-00:53-  2402.3 74323mNWRPali, Rajasthan
7.17|--|HPHaripur  00:59-00:59-  2410.2 74345mNWRPali, Rajasthan
7.18|--|BARBar  01:08-01:08-  2420.7 74383mNWRHaripur, Rajasthan
7.19|--|SEUSendra  01:15-01:15-  2429.5 74427mNWRSabalpura, Rajasthan
7.20|--|APAAmarpura  01:21-01:21-  2437.7 74468mNWRKharwa, Rajasthan
8|--|BERBeawar (2)  01:15 01:26+2501:17 01:28+252m--2443.460447mNWRBeawar, Rajasthan
8.1|-=!BNGMBangurgram Halt  01:33-01:33-  2448.3 60434mNWRBeawar, Rajasthan
8.2!==!PPFPiplaj  01:37-01:37-  2452.8 60449mNWRBeawar, Rajasthan
8.3!==!KRWKharwa  01:44-01:44-  2459.1 60439mNWRAjmer, Rajasthan
8.4!==!LNALamana  01:50-01:50-  2465.1 60441mNWRBeawar, Rajasthan
8.5!==!MLIMangaliyawas  01:54-01:54-  2469.9 60430mNWRMangliyawas Railway Station, Rajasthan
8.6!==!MKRAMakrera  02:00-02:00-  2475.1 60446mNWRKharwa, Rajasthan
8.7!==!SDHSaradhna  02:04-02:04-  2479.9 60461mNWRMangaliyawas, Rajasthan
8.8!==!DOZDaurai  02:13-02:13-  2488.1 60458mNWRMadar, Rajasthan
9!==|AIIAjmer Junction (5)X  02:20+1302:30+1010m12495.667464mNWRPin: 305001, Rajasthan
9.1|==|MDMadar Junction (6)  02:36-02:36-  2502.5 67490mNWRAjmer, Rajasthan
9.2|==|LRLadpura (2)  02:42-02:42-  2509.2 67468mNWRAjmer, Rajasthan
9.3|==|GEKGegal AkhriX  02:47-02:47-  2514.9 67459mNWRKishangarh, Rajasthan
9.4|==|KSGKishangarh (3)  02:56-02:56-  2524.3 67443mNWRKishangarh, Rajasthan
9.5|==|MNDVMandawariya  03:01-03:01-  2530.1 67445mNWRHarmara Rd, Rajasthan
9.6|==|TLTiloniya  03:05-03:05-  2535.1 67428mNWRTiloniya, Rajasthan
9.7|==|GLTAGahlota  03:09-03:09-  2539.3 67417mNWRKishangarh, Rajasthan
9.8|==|SALISali  03:15-03:15-  2546.4 67395mNWRAjmer, Rajasthan
9.9|==|SKSakhun  03:21-03:21-  2553.2 67392mNWRAjmer, Rajasthan
9.10|==|DTRADantraX  03:27-03:27-  2560.0 67366mNWRMDR 85, Rajasthan
9.11|==|NRINaraina  03:32-03:32-  2565.3 67377mNWRAjmer, Rajasthan
9.12|==|BNWSBhanwsa  03:36-03:36-  2569.4 67382mNWRState Highway 2, Rajasthan
9.13|==|FLPhulera Junction (5)X  03:41-03:41-  2575.2 67386mNWRPhulera, Rajasthan
9.14|==|HDAHirnoda  03:49-03:49-  2583.9 67400mNWRJaipur, Rajasthan
9.15|==|DHNDDhindaX  03:52-03:52-  2587.9 67386mNWRMDR 59, Rajasthan
9.16|==|JOBAsalpur Jobner  03:57-03:57-  2593.5 67379mNWRJaipur, Rajasthan
9.17|==|BOBSBobas  04:04-04:04-  2601.0 67396mNWRJaipur, Rajasthan
9.18|==|SHNXSheo Singh Pura  04:10-04:10-  2607.9 67411mNWRJaipur, Rajasthan
9.19|==|DNKDhanakya  04:13-04:13-  2611.7 67418mNWRJaipur, Rajasthan
9.20|==|BDYKBindayaka  04:18-04:18-  2616.2 67411mNWRJaipur, Rajasthan
9.21|==|KKUKanakpuraX  04:22-04:22-  2621.4 67429mNWRJaipur, Rajasthan
10|==|JPJaipur Junction (7)  04:30+1504:40+1710m12630.282434mNWRJaipur, Rajasthan
10.1|==|GADJJaipur Gandhinagar (2)  04:44-04:44-  2635.7 82426mNWRJaipur, Rajasthan
10.2|==|GTJTGetor Jagatpura (2)  04:48-04:48-  2641.2 82389mNWRJaipur, Rajasthan
10.3|==|KWPKhatipura (2)  04:52-04:52-  2647.1 82364mNWRGandhinagar, Rajasthan
10.4|==|KUTKanauta (2)  04:57-04:57-  2653.6 82350mNWRJaipur, Rajasthan
10.5|==|BAIBassi (3)X  05:04-05:04-  2662.8 82352mNWRJaipur, Rajasthan
10.6|==|JHIRJhir (2)  05:09-05:09-  2669.7 82377mNWRKanauta, Rajasthan
10.7|==|BSKOBanskho (2)  05:11-05:11-  2672.3 82362mNWRJaipur, Rajasthan
10.8|==|JWJatwara (2)  05:16-05:16-  2679.7 82329mNWRDausa, Rajasthan
10.9|==|BNDNBhandana (2)  05:20-05:20-  2684.5 82329mNWRBanskho, Rajasthan
11|==|DODausa (2)X  05:25+3005:27+302m22691.775333mNWRDausa, Rajasthan
11.1|==|BAKBhan Kari (2)  05:36-05:36-  2702.5 75301mNWRDausa, Rajasthan
11.2|==|KVGMKolvagram (2)  05:41-05:41-  2709.1 75294mNWRBandikui, Rajasthan
11.3|==|ARNAArnia (2)X  05:45-05:45-  2714.5 75288mNWRBandikui, Rajasthan
12|=-|BKIBandikui Junction (6)  05:50+3605:52+372m12720.592283mNWRBandikui, Rajasthan
12.1|--|GLNAGulana (1)X  05:57-05:57-  2727.5 92279mNWRState Highway 25, Rajasthan
12.2|--|BUBaswa (2)  06:00-06:00-  2733.1 92291mNWRAlwar, Rajasthan
12.3|--|SRRGSurergoth (1)  06:04-06:04-  2739.3 92308mNWRState Highway 25, Rajasthan
13|--|RHGRajgarh (2)  06:08+4306:10+422m--2745.072303mNWRRajgarh, Rajasthan
13.1|--|DGWDhigawara (1)  06:16-06:16-  2751.9 72278mNWRBaswa, Rajasthan
13.2|--|MKHMalakhera (1)  06:24-06:24-  2762.0 72265mNWRMala Khera, Rajasthan
13.3|--|MWWMahwa (1)  06:33-06:33-  2772.6 72264mNWRAlwar, Rajasthan
14|-=%AWRAlwar Junction (2)  06:40+4106:43+413m--2781.265267mNWRAlwar, Rajasthan
14.1%==%PSLParisalX  06:55-06:55-  2794.8 65289mNWRKhairthal, Rajasthan
14.2%==%GALGhatla  07:01-07:01-  2801.2 65308mNWRState Highway 14, Rajasthan
15%==%KRHKhairthal (2)  07:08+3507:10+352m12808.439305mNWRKhairthal, Rajasthan
15.1%==%HSIHarsauliX  07:22-07:22-  2816.1 39287mNWRHarsoli, Rajasthan
15.2%==%KNARKhanpur AhirX  07:30-07:30-  2821.6 39284mNWRMDR 61, Rajasthan
15.3%==%AIAAjaraka  07:40-07:40-  2827.8 39280mNWRAjaraka, Rajasthan
15.4%==%MJNLMajri NangalX  07:50-07:50-  2834.3 39273mNWRState Highway 52, Rajasthan
15.5%==%BWLBawal  08:00-08:00-  2840.7 39266mNWRBawal, Haryana
15.6%==%KNGTKarnawas  08:10-08:10-  2847.6 39257mNWRKarnawas, Haryana
15.7%==%AMRIAnaj Mandi (2)  08:20-08:20-  2854.2 39248mNWRRampura, Haryana
16%==|RERewari Junction (8)XO  08:23+508:25+72m62855.972245mNWRRewari, Haryana
16.1|==|KWMDKumbhawas Mundhalia Dabri (1)X  08:31-08:31-  2862.6 72237mNRKumbhawas, Haryana
16.2|==|KIPKhalilpur  08:34-08:34-  2866.4 72235mNRState Highway 26, Haryana
16.3|==|IHPInchhapuri (1)  08:39-08:39-  2872.8 72231mNRGurgaon, Haryana
17|==|PTRDPataudi RoadX  08:42 08:43+1608:44 08:45+162m--2877.685227mNRHailley Mandi, Haryana
17.1|==|JSKAJataula Samphka (1)  08:49-08:49-  2882.9 85226mNRHailley Mandi, Haryana
17.2|==|TNJRTaj Nagar (2)  08:51-08:51-  2886.2 85231mNRGurgaon, Haryana
17.3|==|PTPatli (3)  08:53-08:53-  2889.2 85226mNRGurgaon, Haryana
17.4|==|GHHGarhi Harsaru (3)  08:59-08:59-  2897.4 85220mNRGurgaon, Haryana
17.5|==|BDXTBasai Dhankot (1)X  09:03-09:03-  2903.3 85213mNRGurgaon, Haryana
18|==|GGNGurgaon (3)  09:06+1909:08+192m22907.264217mNRGurgaon, Haryana
18.1|==|PLVRPalam Vihar HaltX  09:12-09:12-  2911.0 64218mNRGurgaon, Haryana
18.2|==|BWSNBijwasan (3)  09:14-09:14-  2913.8 64222mNRBijwasan, Delhi NCT
18.3|==|SMDPShahabad Mohammadpur (2)X  09:17-09:17-  2917.1 64218mNRDwarka, Delhi NCT
18.4|==|PMPalam (3)  09:20-09:20-  2920.6 64222mNRNew Delhi - 110010, Delhi NCT
18.5|==|NSNNasirpur Halt (1)  09:23-09:23-  2923.0 64220mNRnasirpur, Uttar Pradesh
19|==|DECDelhi Cantt. (4)X  09:31 09:24+1609:33 09:26+162m32924.419217mNRDelhi, Delhi NCT
19.1|==/KRTNKirtinagar (2)  09:44-09:44-  2930.1 19220mNRKirti Nagar, Delhi NCT
19.2/==/PTNRPatel Nagar (7)  09:46-09:46-  2930.9 19222mNRPatel Nagar, Delhi NCT
19.3/==/DBSIDayabasti (2)  09:52-09:52-  2932.8 19225mNRZakhira, Delhi NCT
19.4/==/DEEDelhi Sarai Rohilla (5)  09:56-09:56-  2934.1 19226mNRNew Rohtak road, Delhi NCT
19.5/==/DKZDelhi KishanGanj (2)  10:01-10:01-  2935.6 19220mNRSarai Rohilla, Delhi NCT
20/==/DLIOld Delhi Junction (16)•  10:10+8-32938.5-219mNRNear Chandni Chowk Metro Station, Delhi NCT
Scroll to Top
Scroll to Bottom